sensor_id;sensor_type;location;lat;lon;timestamp;pressure;altitude;pressure_sealevel;temperature;humidity
64080;BME280;51042;49.696;10.808;2022-07-29T00:01:04;98314.66;;;20.90;45.45
64080;BME280;51042;49.696;10.808;2022-07-29T00:03:29;98316.19;;;20.91;45.20
64080;BME280;51042;49.696;10.808;2022-07-29T00:05:54;98312.63;;;20.91;45.29
64080;BME280;51042;49.696;10.808;2022-07-29T00:08:20;98304.50;;;20.87;45.45
64080;BME280;51042;49.696;10.808;2022-07-29T00:10:45;98298.69;;;20.85;45.77
64080;BME280;51042;49.696;10.808;2022-07-29T00:13:11;98290.31;;;20.85;45.68
64080;BME280;51042;49.696;10.808;2022-07-29T00:15:36;98283.22;;;20.84;45.29
64080;BME280;51042;49.696;10.808;2022-07-29T00:18:02;98276.88;;;20.84;45.27
64080;BME280;51042;49.696;10.808;2022-07-29T00:20:28;98276.09;;;20.77;45.68
64080;BME280;51042;49.696;10.808;2022-07-29T00:22:53;98274.84;;;20.73;45.65
64080;BME280;51042;49.696;10.808;2022-07-29T00:25:18;98264.19;;;20.71;45.85
64080;BME280;51042;49.696;10.808;2022-07-29T00:27:44;98256.31;;;20.70;45.81
64080;BME280;51042;49.696;10.808;2022-07-29T00:30:11;98264.41;;;20.68;46.05
64080;BME280;51042;49.696;10.808;2022-07-29T00:32:36;98256.06;;;20.62;46.34
64080;BME280;51042;49.696;10.808;2022-07-29T00:35:02;98253.78;;;20.61;46.54
64080;BME280;51042;49.696;10.808;2022-07-29T00:37:46;98255.06;;;20.60;46.27
64080;BME280;51042;49.696;10.808;2022-07-29T00:40:11;98253.78;;;20.61;46.34
64080;BME280;51042;49.696;10.808;2022-07-29T00:42:46;98249.72;;;20.62;46.28
64080;BME280;51042;49.696;10.808;2022-07-29T00:45:13;98258.84;;;20.62;46.24
64080;BME280;51042;49.696;10.808;2022-07-29T00:47:39;98259.59;;;20.63;45.93
64080;BME280;51042;49.696;10.808;2022-07-29T00:50:05;98261.63;;;20.62;46.08
64080;BME280;51042;49.696;10.808;2022-07-29T00:52:32;98264.94;;;20.66;46.05
64080;BME280;51042;49.696;10.808;2022-07-29T00:55:00;98265.72;;;20.67;45.86
64080;BME280;51042;49.696;10.808;2022-07-29T00:57:25;98262.66;;;20.70;45.67
64080;BME280;51042;49.696;10.808;2022-07-29T00:59:50;98262.16;;;20.72;45.67
64080;BME280;51042;49.696;10.808;2022-07-29T01:02:16;98257.34;;;20.72;45.69
64080;BME280;51042;49.696;10.808;2022-07-29T01:04:41;98258.09;;;20.73;46.20
64080;BME280;51042;49.696;10.808;2022-07-29T01:07:06;98251.00;;;20.72;45.56
64080;BME280;51042;49.696;10.808;2022-07-29T01:09:32;98246.41;;;20.74;45.88
64080;BME280;51042;49.696;10.808;2022-07-29T01:11:58;98247.72;;;20.73;45.64
64080;BME280;51042;49.696;10.808;2022-07-29T01:14:25;98253.03;;;20.71;45.70
64080;BME280;51042;49.696;10.808;2022-07-29T01:16:52;98259.38;;;20.72;46.18
64080;BME280;51042;49.696;10.808;2022-07-29T01:19:47;98260.91;;;20.73;46.49
64080;BME280;51042;49.696;10.808;2022-07-29T01:22:26;98266.97;;;20.71;46.64
64080;BME280;51042;49.696;10.808;2022-07-29T01:27:47;98259.59;;;20.74;46.81
64080;BME280;51042;49.696;10.808;2022-07-29T01:30:26;98261.13;;;20.75;46.40
64080;BME280;51042;49.696;10.808;2022-07-29T01:32:55;98268.22;;;20.76;46.54
64080;BME280;51042;49.696;10.808;2022-07-29T01:35:35;98267.97;;;20.74;46.91
64080;BME280;51042;49.696;10.808;2022-07-29T01:38:12;98275.59;;;20.73;46.53
64080;BME280;51042;49.696;10.808;2022-07-29T01:40:47;98274.84;;;20.73;46.89
64080;BME280;51042;49.696;10.808;2022-07-29T01:43:17;98267.97;;;20.68;46.88
64080;BME280;51042;49.696;10.808;2022-07-29T01:46:02;98265.19;;;20.63;46.95
64080;BME280;51042;49.696;10.808;2022-07-29T01:48:37;98259.88;;;20.54;47.10
64080;BME280;51042;49.696;10.808;2022-07-29T01:56:13;98255.03;;;20.38;48.23
64080;BME280;51042;49.696;10.808;2022-07-29T01:58:41;98256.03;;;20.34;48.55
64080;BME280;51042;49.696;10.808;2022-07-29T02:01:08;98250.44;;;20.29;48.40
64080;BME280;51042;49.696;10.808;2022-07-29T02:03:36;98246.38;;;20.19;48.45
64080;BME280;51042;49.696;10.808;2022-07-29T02:06:04;98246.38;;;20.13;49.07
64080;BME280;51042;49.696;10.808;2022-07-29T02:08:34;98247.59;;;20.07;49.16
64080;BME280;51042;49.696;10.808;2022-07-29T02:11:03;98261.00;;;20.03;49.81
64080;BME280;51042;49.696;10.808;2022-07-29T02:13:31;98253.88;;;19.96;49.63
64080;BME280;51042;49.696;10.808;2022-07-29T02:15:59;98251.84;;;19.91;49.80
64080;BME280;51042;49.696;10.808;2022-07-29T02:18:27;98247.78;;;19.86;50.02
64080;BME280;51042;49.696;10.808;2022-07-29T02:20:55;98245.78;;;19.87;50.56
64080;BME280;51042;49.696;10.808;2022-07-29T02:23:23;98255.16;;;19.84;50.81
64080;BME280;51042;49.696;10.808;2022-07-29T02:25:51;98252.06;;;19.76;51.18
64080;BME280;51042;49.696;10.808;2022-07-29T02:28:20;98255.34;;;19.69;50.77
64080;BME280;51042;49.696;10.808;2022-07-29T02:30:49;98256.84;;;19.65;51.64
64080;BME280;51042;49.696;10.808;2022-07-29T02:33:17;98257.06;;;19.67;51.40
64080;BME280;51042;49.696;10.808;2022-07-29T02:35:45;98253.78;;;19.63;51.01
64080;BME280;51042;49.696;10.808;2022-07-29T02:38:13;98250.00;;;19.60;50.97
64080;BME280;51042;49.696;10.808;2022-07-29T02:40:58;98254.50;;;19.52;51.08
64080;BME280;51042;49.696;10.808;2022-07-29T02:43:28;98254.72;;;19.48;50.81
64080;BME280;51042;49.696;10.808;2022-07-29T02:45:55;98256.00;;;19.47;51.55
64080;BME280;51042;49.696;10.808;2022-07-29T02:48:26;98253.41;;;19.44;51.12
64080;BME280;51042;49.696;10.808;2022-07-29T02:51:00;98249.34;;;19.39;51.49
64080;BME280;51042;49.696;10.808;2022-07-29T02:53:37;98249.00;;;19.26;52.06
64080;BME280;51042;49.696;10.808;2022-07-29T02:56:06;98244.91;;;19.16;52.38
64080;BME280;51042;49.696;10.808;2022-07-29T02:58:46;98249.94;;;19.06;52.69
64080;BME280;51042;49.696;10.808;2022-07-29T03:01:20;98249.63;;;18.99;52.67
64080;BME280;51042;49.696;10.808;2022-07-29T03:03:48;98256.66;;;18.94;52.79
64080;BME280;51042;49.696;10.808;2022-07-29T03:06:16;98254.59;;;18.89;52.70
64080;BME280;51042;49.696;10.808;2022-07-29T03:08:43;98248.50;;;18.85;52.67
64080;BME280;51042;49.696;10.808;2022-07-29T03:11:10;98251.53;;;18.82;52.82
64080;BME280;51042;49.696;10.808;2022-07-29T03:13:37;98253.25;;;18.79;53.39
64080;BME280;51042;49.696;10.808;2022-07-29T03:16:03;98251.97;;;18.74;52.88
64080;BME280;51042;49.696;10.808;2022-07-29T03:18:30;98244.84;;;18.68;53.11
64080;BME280;51042;49.696;10.808;2022-07-29T03:20:55;98241.00;;;18.65;53.34
64080;BME280;51042;49.696;10.808;2022-07-29T03:23:21;98253.41;;;18.64;53.08
64080;BME280;51042;49.696;10.808;2022-07-29T03:25:51;98252.84;;;18.60;53.41
64080;BME280;51042;49.696;10.808;2022-07-29T03:28:17;98251.56;;;18.56;53.54
64080;BME280;51042;49.696;10.808;2022-07-29T03:30:43;98257.75;;;18.45;54.40
64080;BME280;51042;49.696;10.808;2022-07-29T03:33:09;98253.63;;;18.35;54.60
64080;BME280;51042;49.696;10.808;2022-07-29T03:35:34;98247.25;;;18.29;54.80
64080;BME280;51042;49.696;10.808;2022-07-29T03:37:59;98257.31;;;18.26;54.88
64080;BME280;51042;49.696;10.808;2022-07-29T03:40:48;98248.50;;;18.28;54.92
64080;BME280;51042;49.696;10.808;2022-07-29T03:43:16;98248.72;;;18.24;55.21
64080;BME280;51042;49.696;10.808;2022-07-29T03:45:44;98251.72;;;18.21;55.18
64080;BME280;51042;49.696;10.808;2022-07-29T03:48:12;98250.41;;;18.16;55.48
64080;BME280;51042;49.696;10.808;2022-07-29T03:50:41;98258.47;;;18.14;55.07
64080;BME280;51042;49.696;10.808;2022-07-29T03:53:06;98264.03;;;18.14;55.17
64080;BME280;51042;49.696;10.808;2022-07-29T03:55:33;98260.53;;;18.19;54.69
64080;BME280;51042;49.696;10.808;2022-07-29T03:58:05;98265.88;;;18.23;54.46
64080;BME280;51042;49.696;10.808;2022-07-29T04:00:33;98253.25;;;18.22;54.50
64080;BME280;51042;49.696;10.808;2022-07-29T04:03:00;98258.81;;;18.22;54.47
64080;BME280;51042;49.696;10.808;2022-07-29T04:05:26;98260.34;;;18.23;54.95
64080;BME280;51042;49.696;10.808;2022-07-29T04:07:52;98258.84;;;18.27;54.64
64080;BME280;51042;49.696;10.808;2022-07-29T04:10:17;98259.38;;;18.31;55.08
64080;BME280;51042;49.696;10.808;2022-07-29T04:12:47;98254.13;;;18.33;54.77
64080;BME280;51042;49.696;10.808;2022-07-29T04:15:13;98247.78;;;18.33;55.00
64080;BME280;51042;49.696;10.808;2022-07-29T04:17:38;98248.59;;;18.39;54.99
64080;BME280;51042;49.696;10.808;2022-07-29T04:20:04;98257.53;;;18.49;54.35
64080;BME280;51042;49.696;10.808;2022-07-29T04:22:30;98252.59;;;18.58;53.89
64080;BME280;51042;49.696;10.808;2022-07-29T04:24:55;98247.34;;;18.66;53.76
64080;BME280;51042;49.696;10.808;2022-07-29T04:27:21;98245.19;;;18.81;53.50
64080;BME280;51042;49.696;10.808;2022-07-29T04:29:46;98249.31;;;18.91;52.60
64080;BME280;51042;49.696;10.808;2022-07-29T04:32:12;98252.41;;;18.99;52.41
64080;BME280;51042;49.696;10.808;2022-07-29T04:34:37;98251.44;;;19.07;52.62
64080;BME280;51042;49.696;10.808;2022-07-29T04:37:03;98262.59;;;19.55;51.53
64080;BME280;51042;49.696;10.808;2022-07-29T04:39:28;98260.19;;;19.85;50.66
64080;BME280;51042;49.696;10.808;2022-07-29T04:41:53;98250.50;;;19.64;51.66
64080;BME280;51042;49.696;10.808;2022-07-29T04:44:19;98249.78;;;19.75;51.35
64080;BME280;51042;49.696;10.808;2022-07-29T04:46:44;98257.53;;;20.19;50.01
64080;BME280;51042;49.696;10.808;2022-07-29T04:49:09;98257.34;;;20.67;48.88
64080;BME280;51042;49.696;10.808;2022-07-29T04:51:35;98261.88;;;21.94;46.36
64080;BME280;51042;49.696;10.808;2022-07-29T04:54:00;98261.50;;;23.45;43.24
64080;BME280;51042;49.696;10.808;2022-07-29T04:56:26;98257.78;;;24.23;41.31
64080;BME280;51042;49.696;10.808;2022-07-29T04:58:51;98268.41;;;23.87;41.43
64080;BME280;51042;49.696;10.808;2022-07-29T05:01:17;98268.50;;;23.82;41.56
64080;BME280;51042;49.696;10.808;2022-07-29T05:03:42;98266.91;;;23.38;42.36
64080;BME280;51042;49.696;10.808;2022-07-29T05:06:08;98276.59;;;23.12;44.21
64080;BME280;51042;49.696;10.808;2022-07-29T05:08:34;98284.22;;;23.12;45.64
64080;BME280;51042;49.696;10.808;2022-07-29T05:10:59;98284.16;;;22.93;45.99
64080;BME280;51042;49.696;10.808;2022-07-29T05:13:24;98290.09;;;22.43;46.76
64080;BME280;51042;49.696;10.808;2022-07-29T05:15:50;98287.78;;;22.01;48.40
64080;BME280;51042;49.696;10.808;2022-07-29T05:18:15;98285.34;;;21.64;48.98
64080;BME280;51042;49.696;10.808;2022-07-29T05:20:40;98282.16;;;21.32;49.65
64080;BME280;51042;49.696;10.808;2022-07-29T05:23:06;98280.16;;;21.15;49.36
64080;BME280;51042;49.696;10.808;2022-07-29T05:25:31;98282.19;;;20.70;50.55
64080;BME280;51042;49.696;10.808;2022-07-29T05:27:57;98285.22;;;20.67;50.18
64080;BME280;51042;49.696;10.808;2022-07-29T05:30:22;98291.81;;;20.69;50.17
64080;BME280;51042;49.696;10.808;2022-07-29T05:32:48;98285.72;;;20.65;50.37
64080;BME280;51042;49.696;10.808;2022-07-29T05:35:14;98279.66;;;20.84;49.46
64080;BME280;51042;49.696;10.808;2022-07-29T05:37:39;98280.66;;;21.08;48.66
64080;BME280;51042;49.696;10.808;2022-07-29T05:40:05;98282.13;;;21.48;47.21
64080;BME280;51042;49.696;10.808;2022-07-29T05:42:31;98288.41;;;22.64;44.39
64080;BME280;51042;49.696;10.808;2022-07-29T05:44:57;98295.66;;;24.49;41.41
64080;BME280;51042;49.696;10.808;2022-07-29T05:47:22;98297.75;;;26.64;36.95
64080;BME280;51042;49.696;10.808;2022-07-29T05:49:48;98299.25;;;27.77;34.93
64080;BME280;51042;49.696;10.808;2022-07-29T05:52:14;98302.75;;;27.98;34.09
64080;BME280;51042;49.696;10.808;2022-07-29T05:54:40;98298.03;;;27.93;34.88
64080;BME280;51042;49.696;10.808;2022-07-29T05:57:05;98298.31;;;28.61;34.21
64080;BME280;51042;49.696;10.808;2022-07-29T05:59:31;98295.19;;;28.95;33.44
64080;BME280;51042;49.696;10.808;2022-07-29T06:02:02;98290.41;;;28.67;34.08
64080;BME280;51042;49.696;10.808;2022-07-29T06:04:29;98295.38;;;29.20;32.82
64080;BME280;51042;49.696;10.808;2022-07-29T06:06:55;98291.94;;;30.37;31.12
64080;BME280;51042;49.696;10.808;2022-07-29T06:09:21;98290.34;;;30.84;30.16
64080;BME280;51042;49.696;10.808;2022-07-29T06:11:47;98305.66;;;30.81;29.93
64080;BME280;51042;49.696;10.808;2022-07-29T06:14:13;98300.81;;;30.34;30.46
64080;BME280;51042;49.696;10.808;2022-07-29T06:16:38;98294.59;;;29.73;31.61
64080;BME280;51042;49.696;10.808;2022-07-29T06:19:04;98292.34;;;28.88;31.70
64080;BME280;51042;49.696;10.808;2022-07-29T06:21:29;98298.31;;;28.54;32.81
64080;BME280;51042;49.696;10.808;2022-07-29T06:23:54;98291.25;;;28.32;33.18
64080;BME280;51042;49.696;10.808;2022-07-29T06:26:20;98300.84;;;29.03;32.84
64080;BME280;51042;49.696;10.808;2022-07-29T06:28:45;98293.50;;;29.38;31.28
64080;BME280;51042;49.696;10.808;2022-07-29T06:31:10;98294.81;;;29.44;31.23
64080;BME280;51042;49.696;10.808;2022-07-29T06:33:36;98299.50;;;28.81;31.95
64080;BME280;51042;49.696;10.808;2022-07-29T06:36:03;98301.94;;;28.85;32.16
64080;BME280;51042;49.696;10.808;2022-07-29T06:38:29;98293.16;;;27.93;32.79
64080;BME280;51042;49.696;10.808;2022-07-29T06:40:54;98290.91;;;26.94;33.42
64080;BME280;51042;49.696;10.808;2022-07-29T06:43:32;98286.41;;;25.17;36.18
64080;BME280;51042;49.696;10.808;2022-07-29T06:46:01;98294.28;;;24.18;38.20
64080;BME280;51042;49.696;10.808;2022-07-29T06:48:28;98290.16;;;23.81;39.13
64080;BME280;51042;49.696;10.808;2022-07-29T06:50:54;98289.38;;;23.81;39.72
64080;BME280;51042;49.696;10.808;2022-07-29T06:53:19;98290.63;;;23.61;39.77
64080;BME280;51042;49.696;10.808;2022-07-29T06:55:44;98289.09;;;23.60;39.99
64080;BME280;51042;49.696;10.808;2022-07-29T06:58:10;98287.44;;;23.51;40.11
64080;BME280;51042;49.696;10.808;2022-07-29T07:00:36;98289.38;;;23.32;40.62
64080;BME280;51042;49.696;10.808;2022-07-29T07:03:01;98294.94;;;23.38;40.79
64080;BME280;51042;49.696;10.808;2022-07-29T07:05:27;98295.00;;;23.32;40.74
64080;BME280;51042;49.696;10.808;2022-07-29T07:07:52;98294.00;;;23.30;41.01
64080;BME280;51042;49.696;10.808;2022-07-29T07:10:18;98296.44;;;23.39;40.94
64080;BME280;51042;49.696;10.808;2022-07-29T07:12:43;98288.94;;;23.77;40.25
64080;BME280;51042;49.696;10.808;2022-07-29T07:15:08;98298.44;;;23.68;40.50
64080;BME280;51042;49.696;10.808;2022-07-29T07:17:34;98293.94;;;24.02;40.53
64080;BME280;51042;49.696;10.808;2022-07-29T07:19:59;98283.69;;;24.29;39.54
64080;BME280;51042;49.696;10.808;2022-07-29T07:22:25;98303.44;;;23.99;40.15
64080;BME280;51042;49.696;10.808;2022-07-29T07:24:50;98291.91;;;24.03;40.37
64080;BME280;51042;49.696;10.808;2022-07-29T07:27:15;98287.38;;;24.56;39.44
64080;BME280;51042;49.696;10.808;2022-07-29T07:29:41;98287.41;;;24.69;39.36
64080;BME280;51042;49.696;10.808;2022-07-29T07:32:06;98293.84;;;24.83;38.81
64080;BME280;51042;49.696;10.808;2022-07-29T07:34:32;98283.69;;;24.48;39.35
64080;BME280;51042;49.696;10.808;2022-07-29T07:36:58;98280.13;;;24.29;40.11
64080;BME280;51042;49.696;10.808;2022-07-29T07:39:23;98279.53;;;24.68;39.88
64080;BME280;51042;49.696;10.808;2022-07-29T07:41:50;98279.66;;;24.94;38.91
64080;BME280;51042;49.696;10.808;2022-07-29T07:44:16;98277.72;;;24.70;39.45
64080;BME280;51042;49.696;10.808;2022-07-29T07:46:42;98278.66;;;24.60;39.93
64080;BME280;51042;49.696;10.808;2022-07-29T07:49:07;98273.91;;;24.68;40.19
64080;BME280;51042;49.696;10.808;2022-07-29T07:51:32;98273.53;;;25.22;39.12
64080;BME280;51042;49.696;10.808;2022-07-29T07:53:57;98276.94;;;25.73;38.83
64080;BME280;51042;49.696;10.808;2022-07-29T07:56:23;98273.38;;;25.73;38.60
64080;BME280;51042;49.696;10.808;2022-07-29T07:58:48;98275.53;;;25.80;38.67
64080;BME280;51042;49.696;10.808;2022-07-29T08:01:13;98279.47;;;26.11;38.30
64080;BME280;51042;49.696;10.808;2022-07-29T08:03:39;98276.63;;;26.37;37.65
64080;BME280;51042;49.696;10.808;2022-07-29T08:06:04;98277.22;;;26.56;37.53
64080;BME280;51042;49.696;10.808;2022-07-29T08:08:30;98273.06;;;26.36;37.68
64080;BME280;51042;49.696;10.808;2022-07-29T08:10:55;98278.19;;;26.79;36.96
64080;BME280;51042;49.696;10.808;2022-07-29T08:13:21;98274.00;;;26.73;36.61
64080;BME280;51042;49.696;10.808;2022-07-29T08:15:49;98271.94;;;26.73;37.36
64080;BME280;51042;49.696;10.808;2022-07-29T08:18:22;98263.88;;;27.19;36.46
64080;BME280;51042;49.696;10.808;2022-07-29T08:20:49;98267.00;;;27.08;36.40
64080;BME280;51042;49.696;10.808;2022-07-29T08:23:14;98259.94;;;26.94;37.04
64080;BME280;51042;49.696;10.808;2022-07-29T08:25:40;98262.03;;;26.59;37.51
64080;BME280;51042;49.696;10.808;2022-07-29T08:28:06;98255.59;;;26.51;38.01
64080;BME280;51042;49.696;10.808;2022-07-29T08:30:31;98266.75;;;26.44;37.71
64080;BME280;51042;49.696;10.808;2022-07-29T08:32:57;98277.16;;;26.69;37.15
64080;BME280;51042;49.696;10.808;2022-07-29T08:35:23;98272.06;;;26.68;37.30
64080;BME280;51042;49.696;10.808;2022-07-29T08:37:48;98262.06;;;27.01;36.64
64080;BME280;51042;49.696;10.808;2022-07-29T08:40:14;98269.88;;;27.65;35.92
64080;BME280;51042;49.696;10.808;2022-07-29T08:42:39;98264.38;;;28.38;35.19
64080;BME280;51042;49.696;10.808;2022-07-29T08:45:05;98270.41;;;28.50;34.22
64080;BME280;51042;49.696;10.808;2022-07-29T08:47:31;98268.75;;;27.68;36.14
64080;BME280;51042;49.696;10.808;2022-07-29T08:49:57;98264.47;;;27.46;36.20
64080;BME280;51042;49.696;10.808;2022-07-29T08:52:24;98266.16;;;28.13;35.95
64080;BME280;51042;49.696;10.808;2022-07-29T08:54:50;98265.00;;;28.60;34.55
64080;BME280;51042;49.696;10.808;2022-07-29T08:57:17;98273.72;;;29.00;34.69
64080;BME280;51042;49.696;10.808;2022-07-29T08:59:44;98267.69;;;29.11;34.47
64080;BME280;51042;49.696;10.808;2022-07-29T09:02:17;98267.50;;;28.20;34.91
64080;BME280;51042;49.696;10.808;2022-07-29T09:04:45;98275.00;;;27.74;37.12
64080;BME280;51042;49.696;10.808;2022-07-29T09:07:14;98268.09;;;27.90;35.96
64080;BME280;51042;49.696;10.808;2022-07-29T09:09:40;98264.38;;;27.95;35.59
64080;BME280;51042;49.696;10.808;2022-07-29T09:12:07;98263.59;;;27.30;36.44
64080;BME280;51042;49.696;10.808;2022-07-29T09:14:33;98269.13;;;27.43;36.80
64080;BME280;51042;49.696;10.808;2022-07-29T09:16:59;98261.28;;;27.78;36.34
64080;BME280;51042;49.696;10.808;2022-07-29T09:19:28;98266.16;;;28.13;35.31
64080;BME280;51042;49.696;10.808;2022-07-29T09:22:00;98265.97;;;27.75;36.40
64080;BME280;51042;49.696;10.808;2022-07-29T09:29:45;98257.09;;;27.64;36.06
64080;BME280;51042;49.696;10.808;2022-07-29T09:32:11;98254.28;;;27.43;36.81
64080;BME280;51042;49.696;10.808;2022-07-29T09:34:36;98248.72;;;27.22;37.18
64080;BME280;51042;49.696;10.808;2022-07-29T09:37:02;98247.13;;;27.13;37.46
64080;BME280;51042;49.696;10.808;2022-07-29T09:39:32;98238.09;;;28.08;35.95
64080;BME280;51042;49.696;10.808;2022-07-29T09:42:03;98246.13;;;27.96;36.15
64080;BME280;51042;49.696;10.808;2022-07-29T09:44:43;98237.56;;;28.83;35.44
64080;BME280;51042;49.696;10.808;2022-07-29T09:47:10;98242.09;;;30.02;33.08
64080;BME280;51042;49.696;10.808;2022-07-29T09:49:49;98241.75;;;30.30;32.41
64080;BME280;51042;49.696;10.808;2022-07-29T09:52:16;98241.63;;;29.66;33.36
64080;BME280;51042;49.696;10.808;2022-07-29T09:54:42;98243.84;;;29.75;33.15
64080;BME280;51042;49.696;10.808;2022-07-29T09:57:08;98242.09;;;29.87;33.24
64080;BME280;51042;49.696;10.808;2022-07-29T09:59:55;98251.47;;;28.96;34.23
64080;BME280;51042;49.696;10.808;2022-07-29T10:02:32;98244.63;;;28.61;34.72
64080;BME280;51042;49.696;10.808;2022-07-29T10:04:58;98245.81;;;28.73;34.60
64080;BME280;51042;49.696;10.808;2022-07-29T10:07:25;98238.63;;;28.65;34.63
64080;BME280;51042;49.696;10.808;2022-07-29T10:09:54;98241.06;;;28.53;34.70
64080;BME280;51042;49.696;10.808;2022-07-29T10:12:21;98239.50;;;28.29;35.55
64080;BME280;51042;49.696;10.808;2022-07-29T10:14:47;98242.97;;;28.66;35.53
64080;BME280;51042;49.696;10.808;2022-07-29T10:17:14;98243.75;;;29.12;34.94
64080;BME280;51042;49.696;10.808;2022-07-29T10:19:40;98236.94;;;29.45;33.88
64080;BME280;51042;49.696;10.808;2022-07-29T10:22:07;98238.47;;;29.46;34.07
64080;BME280;51042;49.696;10.808;2022-07-29T10:24:34;98235.41;;;29.59;34.46
64080;BME280;51042;49.696;10.808;2022-07-29T10:27:02;98247.63;;;29.70;34.29
64080;BME280;51042;49.696;10.808;2022-07-29T10:29:29;98239.16;;;29.70;33.83
64080;BME280;51042;49.696;10.808;2022-07-29T10:34:50;98235.25;;;29.27;34.86
64080;BME280;51042;49.696;10.808;2022-07-29T10:40:11;98231.66;;;30.12;33.64
64080;BME280;51042;49.696;10.808;2022-07-29T10:43:14;98227.38;;;30.36;33.49
64080;BME280;51042;49.696;10.808;2022-07-29T10:45:45;98234.53;;;31.19;32.62
64080;BME280;51042;49.696;10.808;2022-07-29T10:48:12;98225.66;;;31.91;31.21
64080;BME280;51042;49.696;10.808;2022-07-29T10:50:54;98228.63;;;32.11;29.91
64080;BME280;51042;49.696;10.808;2022-07-29T10:53:22;98218.47;;;30.72;31.12
64080;BME280;51042;49.696;10.808;2022-07-29T10:55:48;98206.66;;;30.26;32.48
64080;BME280;51042;49.696;10.808;2022-07-29T10:58:19;98217.75;;;30.64;32.02
64080;BME280;51042;49.696;10.808;2022-07-29T11:00:49;98208.78;;;31.42;31.72
64080;BME280;51042;49.696;10.808;2022-07-29T11:06:13;98206.78;;;33.03;29.39
64080;BME280;51042;49.696;10.808;2022-07-29T11:08:39;98213.22;;;33.04;28.78
64080;BME280;51042;49.696;10.808;2022-07-29T11:16:08;98214.25;;;33.74;28.77
64080;BME280;51042;49.696;10.808;2022-07-29T11:18:34;98202.25;;;33.66;27.89
64080;BME280;51042;49.696;10.808;2022-07-29T11:20:59;98208.88;;;33.78;27.43
64080;BME280;51042;49.696;10.808;2022-07-29T11:23:31;98204.78;;;33.23;27.89
64080;BME280;51042;49.696;10.808;2022-07-29T11:28:36;98199.66;;;30.84;31.14
64080;BME280;51042;49.696;10.808;2022-07-29T11:31:14;98187.84;;;30.95;31.47
64080;BME280;51042;49.696;10.808;2022-07-29T11:33:41;98191.38;;;31.03;32.60
64080;BME280;51042;49.696;10.808;2022-07-29T11:36:14;98186.06;;;31.25;31.99
64080;BME280;51042;49.696;10.808;2022-07-29T11:38:40;98189.84;;;31.44;30.56
64080;BME280;51042;49.696;10.808;2022-07-29T11:41:21;98189.03;;;31.69;30.44
64080;BME280;51042;49.696;10.808;2022-07-29T11:43:59;98192.47;;;32.11;30.55
64080;BME280;51042;49.696;10.808;2022-07-29T11:49:18;98192.41;;;31.15;31.60
64080;BME280;51042;49.696;10.808;2022-07-29T11:51:51;98182.09;;;31.45;31.33
64080;BME280;51042;49.696;10.808;2022-07-29T11:54:16;98184.06;;;31.86;30.18
64080;BME280;51042;49.696;10.808;2022-07-29T11:56:53;98181.97;;;31.52;30.72
64080;BME280;51042;49.696;10.808;2022-07-29T11:59:19;98176.00;;;30.89;31.23
64080;BME280;51042;49.696;10.808;2022-07-29T12:01:55;98170.09;;;30.70;31.40
64080;BME280;51042;49.696;10.808;2022-07-29T12:04:23;98165.75;;;30.94;30.80
64080;BME280;51042;49.696;10.808;2022-07-29T12:06:51;98161.56;;;30.95;30.51
64080;BME280;51042;49.696;10.808;2022-07-29T12:09:18;98162.81;;;31.09;30.28
64080;BME280;51042;49.696;10.808;2022-07-29T12:11:45;98161.28;;;30.66;31.33
64080;BME280;51042;49.696;10.808;2022-07-29T12:16:51;98146.56;;;30.85;30.64
64080;BME280;51042;49.696;10.808;2022-07-29T12:19:16;98152.44;;;31.55;28.79
64080;BME280;51042;49.696;10.808;2022-07-29T12:21:48;98133.50;;;32.65;28.45
64080;BME280;51042;49.696;10.808;2022-07-29T12:24:15;98130.91;;;33.15;27.87
64080;BME280;51042;49.696;10.808;2022-07-29T12:26:55;98121.78;;;33.65;26.36
64080;BME280;51042;49.696;10.808;2022-07-29T12:29:24;98117.72;;;33.87;27.29
64080;BME280;51042;49.696;10.808;2022-07-29T12:31:53;98126.63;;;34.22;26.75
64080;BME280;51042;49.696;10.808;2022-07-29T12:34:19;98124.28;;;34.50;25.79
64080;BME280;51042;49.696;10.808;2022-07-29T12:36:47;98128.97;;;33.95;27.36
64080;BME280;51042;49.696;10.808;2022-07-29T12:39:13;98122.47;;;34.14;26.41
64080;BME280;51042;49.696;10.808;2022-07-29T12:41:43;98134.25;;;34.70;26.54
64080;BME280;51042;49.696;10.808;2022-07-29T12:44:09;98124.94;;;33.11;26.93
64080;BME280;51042;49.696;10.808;2022-07-29T12:46:35;98124.44;;;32.86;26.74
64080;BME280;51042;49.696;10.808;2022-07-29T12:49:00;98124.38;;;33.22;27.56
64080;BME280;51042;49.696;10.808;2022-07-29T12:51:33;98120.44;;;33.56;27.31
64080;BME280;51042;49.696;10.808;2022-07-29T12:54:11;98123.88;;;32.97;28.16
64080;BME280;51042;49.696;10.808;2022-07-29T12:56:40;98115.94;;;33.15;28.12
64080;BME280;51042;49.696;10.808;2022-07-29T12:59:19;98117.91;;;33.12;28.80
64080;BME280;51042;49.696;10.808;2022-07-29T13:01:48;98111.94;;;32.62;28.82
64080;BME280;51042;49.696;10.808;2022-07-29T13:04:31;98121.59;;;31.25;30.62
64080;BME280;51042;49.696;10.808;2022-07-29T13:07:02;98115.97;;;30.83;33.44
64080;BME280;51042;49.696;10.808;2022-07-29T13:09:40;98113.22;;;30.93;33.54
64080;BME280;51042;49.696;10.808;2022-07-29T13:12:10;98122.69;;;31.30;33.69
64080;BME280;51042;49.696;10.808;2022-07-29T13:14:38;98120.34;;;31.97;32.36
64080;BME280;51042;49.696;10.808;2022-07-29T13:17:07;98108.69;;;32.66;30.64
64080;BME280;51042;49.696;10.808;2022-07-29T13:19:45;98114.50;;;33.43;30.13
64080;BME280;51042;49.696;10.808;2022-07-29T13:22:23;98109.91;;;33.97;29.23
64080;BME280;51042;49.696;10.808;2022-07-29T13:24:56;98107.69;;;33.67;29.10
64080;BME280;51042;49.696;10.808;2022-07-29T13:27:24;98096.91;;;32.79;30.10
64080;BME280;51042;49.696;10.808;2022-07-29T13:29:52;98102.97;;;32.56;30.10